sensor_id;sensor_type;location;lat;lon;timestamp;temperature;humidity
5978;DHT22;3015;51.390;12.256;2022-12-18T00:01:00;-7.30;1.00
5978;DHT22;3015;51.390;12.256;2022-12-18T00:03:26;-7.30;1.00
5978;DHT22;3015;51.390;12.256;2022-12-18T00:05:52;-7.40;1.00
5978;DHT22;3015;51.390;12.256;2022-12-18T00:08:18;-7.40;1.00
5978;DHT22;3015;51.390;12.256;2022-12-18T00:10:44;-7.40;1.00
5978;DHT22;3015;51.390;12.256;2022-12-18T00:13:10;-7.50;99.90
5978;DHT22;3015;51.390;12.256;2022-12-18T00:15:38;-7.50;99.90
5978;DHT22;3015;51.390;12.256;2022-12-18T00:18:03;-7.60;99.90
5978;DHT22;3015;51.390;12.256;2022-12-18T00:20:29;-7.70;99.90
5978;DHT22;3015;51.390;12.256;2022-12-18T00:22:55;-7.70;99.90
5978;DHT22;3015;51.390;12.256;2022-12-18T00:25:21;-7.80;99.90
5978;DHT22;3015;51.390;12.256;2022-12-18T00:27:47;-7.80;99.90
5978;DHT22;3015;51.390;12.256;2022-12-18T00:30:13;-7.90;99.90
5978;DHT22;3015;51.390;12.256;2022-12-18T00:32:39;-8.00;99.90
5978;DHT22;3015;51.390;12.256;2022-12-18T00:35:05;-8.10;99.90
5978;DHT22;3015;51.390;12.256;2022-12-18T00:37:33;-8.10;99.90
5978;DHT22;3015;51.390;12.256;2022-12-18T00:39:59;-8.20;99.90
5978;DHT22;3015;51.390;12.256;2022-12-18T00:42:24;-8.30;99.90
5978;DHT22;3015;51.390;12.256;2022-12-18T00:45:09;-8.50;55.00
5978;DHT22;3015;51.390;12.256;2022-12-18T00:47:35;-8.60;1.00
5978;DHT22;3015;51.390;12.256;2022-12-18T00:50:00;-8.80;1.00
5978;DHT22;3015;51.390;12.256;2022-12-18T00:52:26;-8.90;21.30
5978;DHT22;3015;51.390;12.256;2022-12-18T00:54:52;-9.00;24.70
5978;DHT22;3015;51.390;12.256;2022-12-18T00:57:17;-9.10;3.60
5978;DHT22;3015;51.390;12.256;2022-12-18T00:59:43;-9.20;91.60
5978;DHT22;3015;51.390;12.256;2022-12-18T01:02:08;-9.30;97.20
5978;DHT22;3015;51.390;12.256;2022-12-18T01:04:34;-9.40;99.90
5978;DHT22;3015;51.390;12.256;2022-12-18T01:07:00;-9.50;99.60
5978;DHT22;3015;51.390;12.256;2022-12-18T01:09:26;-9.60;57.70
5978;DHT22;3015;51.390;12.256;2022-12-18T01:11:52;-9.70;99.90
5978;DHT22;3015;51.390;12.256;2022-12-18T01:14:17;-9.50;99.90
5978;DHT22;3015;51.390;12.256;2022-12-18T01:16:43;-9.70;1.00
5978;DHT22;3015;51.390;12.256;2022-12-18T01:19:09;-9.80;1.00
5978;DHT22;3015;51.390;12.256;2022-12-18T01:21:34;-9.90;1.00
5978;DHT22;3015;51.390;12.256;2022-12-18T01:24:00;-10.00;1.00
5978;DHT22;3015;51.390;12.256;2022-12-18T01:26:26;-10.10;1.00
5978;DHT22;3015;51.390;12.256;2022-12-18T01:28:55;-10.10;1.00
5978;DHT22;3015;51.390;12.256;2022-12-18T01:31:26;-10.20;99.90
5978;DHT22;3015;51.390;12.256;2022-12-18T01:33:52;-10.30;99.90
5978;DHT22;3015;51.390;12.256;2022-12-18T01:36:33;-10.40;99.90
5978;DHT22;3015;51.390;12.256;2022-12-18T01:39:00;-10.40;99.90
5978;DHT22;3015;51.390;12.256;2022-12-18T01:41:28;-10.40;99.90
5978;DHT22;3015;51.390;12.256;2022-12-18T01:49:52;-10.70;58.00
5978;DHT22;3015;51.390;12.256;2022-12-18T01:52:19;-10.80;2.70
5978;DHT22;3015;51.390;12.256;2022-12-18T01:54:46;-10.90;1.00
5978;DHT22;3015;51.390;12.256;2022-12-18T01:57:12;-10.90;1.00
5978;DHT22;3015;51.390;12.256;2022-12-18T01:59:39;-11.00;1.00
5978;DHT22;3015;51.390;12.256;2022-12-18T02:02:07;-11.00;1.00
5978;DHT22;3015;51.390;12.256;2022-12-18T02:04:33;-11.00;1.00
5978;DHT22;3015;51.390;12.256;2022-12-18T02:12:24;-11.20;1.00
5978;DHT22;3015;51.390;12.256;2022-12-18T02:15:10;-11.20;1.00
5978;DHT22;3015;51.390;12.256;2022-12-18T02:17:56;-11.30;1.00
5978;DHT22;3015;51.390;12.256;2022-12-18T02:20:31;-11.30;1.00
5978;DHT22;3015;51.390;12.256;2022-12-18T02:29:21;-11.50;99.90
5978;DHT22;3015;51.390;12.256;2022-12-18T02:31:52;-11.50;1.00
5978;DHT22;3015;51.390;12.256;2022-12-18T02:34:21;-11.50;99.90
5978;DHT22;3015;51.390;12.256;2022-12-18T02:36:49;-11.50;1.00
5978;DHT22;3015;51.390;12.256;2022-12-18T02:39:16;-11.50;99.90
5978;DHT22;3015;51.390;12.256;2022-12-18T02:41:43;-11.60;99.90
5978;DHT22;3015;51.390;12.256;2022-12-18T02:44:13;-11.60;99.90
5978;DHT22;3015;51.390;12.256;2022-12-18T02:46:45;-11.70;99.90
5978;DHT22;3015;51.390;12.256;2022-12-18T02:55:00;-11.60;99.90
5978;DHT22;3015;51.390;12.256;2022-12-18T02:58:18;-11.70;8.30
5978;DHT22;3015;51.390;12.256;2022-12-18T03:00:27;-11.70;80.00
5978;DHT22;3015;51.390;12.256;2022-12-18T03:03:05;-11.80;1.00
5978;DHT22;3015;51.390;12.256;2022-12-18T03:05:50;-11.80;99.90
5978;DHT22;3015;51.390;12.256;2022-12-18T03:08:25;-11.90;1.00
5978;DHT22;3015;51.390;12.256;2022-12-18T03:11:03;-11.90;1.00
5978;DHT22;3015;51.390;12.256;2022-12-18T03:13:42;-11.90;1.00
5978;DHT22;3015;51.390;12.256;2022-12-18T03:16:14;-12.00;1.00
5978;DHT22;3015;51.390;12.256;2022-12-18T03:18:57;-12.00;1.00
5978;DHT22;3015;51.390;12.256;2022-12-18T03:21:31;-12.00;1.00
5978;DHT22;3015;51.390;12.256;2022-12-18T03:23:58;-12.10;50.90
5978;DHT22;3015;51.390;12.256;2022-12-18T03:26:25;-12.00;99.90
5978;DHT22;3015;51.390;12.256;2022-12-18T03:28:56;-12.10;1.00
5978;DHT22;3015;51.390;12.256;2022-12-18T03:31:25;-12.10;1.00
5978;DHT22;3015;51.390;12.256;2022-12-18T03:33:54;-12.10;45.80
5978;DHT22;3015;51.390;12.256;2022-12-18T03:36:21;-12.10;1.00
5978;DHT22;3015;51.390;12.256;2022-12-18T03:38:47;-12.20;1.00
5978;DHT22;3015;51.390;12.256;2022-12-18T03:41:29;-12.20;1.00
5978;DHT22;3015;51.390;12.256;2022-12-18T03:46:58;-12.20;1.00
5978;DHT22;3015;51.390;12.256;2022-12-18T03:49:38;-12.20;96.70
5978;DHT22;3015;51.390;12.256;2022-12-18T03:52:14;-12.20;1.00
5978;DHT22;3015;51.390;12.256;2022-12-18T03:54:42;-12.20;1.00
5978;DHT22;3015;51.390;12.256;2022-12-18T03:57:14;-12.30;1.00
5978;DHT22;3015;51.390;12.256;2022-12-18T03:59:41;-12.30;1.00
5978;DHT22;3015;51.390;12.256;2022-12-18T04:02:08;-12.30;1.00
5978;DHT22;3015;51.390;12.256;2022-12-18T04:04:35;-12.40;1.00
5978;DHT22;3015;51.390;12.256;2022-12-18T04:07:03;-12.40;1.00
5978;DHT22;3015;51.390;12.256;2022-12-18T04:09:32;-12.50;1.00
5978;DHT22;3015;51.390;12.256;2022-12-18T04:11:58;-12.50;1.00
5978;DHT22;3015;51.390;12.256;2022-12-18T04:14:23;-12.50;1.00
5978;DHT22;3015;51.390;12.256;2022-12-18T04:16:49;-12.50;1.00
5978;DHT22;3015;51.390;12.256;2022-12-18T04:19:15;-12.50;1.00
5978;DHT22;3015;51.390;12.256;2022-12-18T04:21:40;-12.60;1.00
5978;DHT22;3015;51.390;12.256;2022-12-18T04:24:06;-12.60;1.00
5978;DHT22;3015;51.390;12.256;2022-12-18T04:26:32;-12.60;1.00
5978;DHT22;3015;51.390;12.256;2022-12-18T04:28:57;-12.60;1.00
5978;DHT22;3015;51.390;12.256;2022-12-18T04:31:23;-12.60;1.00
5978;DHT22;3015;51.390;12.256;2022-12-18T04:33:48;-12.60;1.00
5978;DHT22;3015;51.390;12.256;2022-12-18T04:36:14;-12.60;1.00
5978;DHT22;3015;51.390;12.256;2022-12-18T04:38:40;-12.60;1.00
5978;DHT22;3015;51.390;12.256;2022-12-18T04:41:05;-12.60;1.00
5978;DHT22;3015;51.390;12.256;2022-12-18T04:43:31;-12.70;1.00
5978;DHT22;3015;51.390;12.256;2022-12-18T04:46:05;-12.70;1.00
5978;DHT22;3015;51.390;12.256;2022-12-18T04:48:31;-12.70;1.00
5978;DHT22;3015;51.390;12.256;2022-12-18T04:50:57;-12.70;1.00
5978;DHT22;3015;51.390;12.256;2022-12-18T04:53:23;-12.70;1.00
5978;DHT22;3015;51.390;12.256;2022-12-18T04:55:49;-12.70;1.00
5978;DHT22;3015;51.390;12.256;2022-12-18T04:58:14;-12.80;1.00
5978;DHT22;3015;51.390;12.256;2022-12-18T05:00:40;-12.80;1.00
5978;DHT22;3015;51.390;12.256;2022-12-18T05:03:05;-12.80;1.00
5978;DHT22;3015;51.390;12.256;2022-12-18T05:05:31;-12.80;1.00
5978;DHT22;3015;51.390;12.256;2022-12-18T05:07:57;-12.80;1.00
5978;DHT22;3015;51.390;12.256;2022-12-18T05:10:22;-12.80;1.00
5978;DHT22;3015;51.390;12.256;2022-12-18T05:12:48;-12.70;1.00
5978;DHT22;3015;51.390;12.256;2022-12-18T05:15:30;-12.70;1.00
5978;DHT22;3015;51.390;12.256;2022-12-18T05:17:59;-12.70;1.00
5978;DHT22;3015;51.390;12.256;2022-12-18T05:20:26;-12.80;99.90
5978;DHT22;3015;51.390;12.256;2022-12-18T05:22:52;-12.80;99.90
5978;DHT22;3015;51.390;12.256;2022-12-18T05:25:18;-12.80;1.00
5978;DHT22;3015;51.390;12.256;2022-12-18T05:27:44;-12.80;1.00
5978;DHT22;3015;51.390;12.256;2022-12-18T05:30:11;-12.70;99.90
5978;DHT22;3015;51.390;12.256;2022-12-18T05:32:37;-12.70;99.90
5978;DHT22;3015;51.390;12.256;2022-12-18T05:35:04;-12.80;99.90
5978;DHT22;3015;51.390;12.256;2022-12-18T05:37:30;-12.80;99.90
5978;DHT22;3015;51.390;12.256;2022-12-18T05:39:55;-12.80;99.90
5978;DHT22;3015;51.390;12.256;2022-12-18T05:42:21;-12.90;99.90
5978;DHT22;3015;51.390;12.256;2022-12-18T05:44:46;-12.90;99.90
5978;DHT22;3015;51.390;12.256;2022-12-18T05:47:12;-12.90;99.90
5978;DHT22;3015;51.390;12.256;2022-12-18T05:49:38;-12.90;99.90
5978;DHT22;3015;51.390;12.256;2022-12-18T05:52:04;-12.90;1.00
5978;DHT22;3015;51.390;12.256;2022-12-18T05:54:30;-12.90;99.90
5978;DHT22;3015;51.390;12.256;2022-12-18T05:56:56;-13.00;99.90
5978;DHT22;3015;51.390;12.256;2022-12-18T05:59:22;-13.00;99.90
5978;DHT22;3015;51.390;12.256;2022-12-18T06:01:48;-13.00;99.90
5978;DHT22;3015;51.390;12.256;2022-12-18T06:04:13;-13.00;1.00
5978;DHT22;3015;51.390;12.256;2022-12-18T06:06:39;-13.00;1.00
5978;DHT22;3015;51.390;12.256;2022-12-18T06:09:05;-13.00;1.00
5978;DHT22;3015;51.390;12.256;2022-12-18T06:11:36;-13.00;99.90
5978;DHT22;3015;51.390;12.256;2022-12-18T06:14:03;-13.00;1.00
5978;DHT22;3015;51.390;12.256;2022-12-18T06:16:29;-13.00;99.90
5978;DHT22;3015;51.390;12.256;2022-12-18T06:18:59;-13.00;99.90
5978;DHT22;3015;51.390;12.256;2022-12-18T06:21:25;-13.00;1.00
5978;DHT22;3015;51.390;12.256;2022-12-18T06:23:51;-13.00;99.90
5978;DHT22;3015;51.390;12.256;2022-12-18T06:26:18;-13.00;99.90
5978;DHT22;3015;51.390;12.256;2022-12-18T06:28:44;-13.10;99.90
5978;DHT22;3015;51.390;12.256;2022-12-18T06:31:10;-13.10;99.90
5978;DHT22;3015;51.390;12.256;2022-12-18T06:33:36;-13.10;99.90
5978;DHT22;3015;51.390;12.256;2022-12-18T06:36:04;-13.10;99.90
5978;DHT22;3015;51.390;12.256;2022-12-18T06:38:31;-13.10;99.90
5978;DHT22;3015;51.390;12.256;2022-12-18T06:40:57;-13.10;1.00
5978;DHT22;3015;51.390;12.256;2022-12-18T06:43:23;-13.00;1.00
5978;DHT22;3015;51.390;12.256;2022-12-18T06:45:48;-13.10;99.90
5978;DHT22;3015;51.390;12.256;2022-12-18T06:48:18;-13.10;99.90
5978;DHT22;3015;51.390;12.256;2022-12-18T06:50:45;-13.00;1.00
5978;DHT22;3015;51.390;12.256;2022-12-18T06:53:10;-13.00;1.00
5978;DHT22;3015;51.390;12.256;2022-12-18T06:55:36;-13.00;99.90
5978;DHT22;3015;51.390;12.256;2022-12-18T06:58:02;-13.00;99.90
5978;DHT22;3015;51.390;12.256;2022-12-18T07:00:27;-13.00;99.90
5978;DHT22;3015;51.390;12.256;2022-12-18T07:02:53;-13.00;99.90
5978;DHT22;3015;51.390;12.256;2022-12-18T07:05:18;-13.00;99.90
5978;DHT22;3015;51.390;12.256;2022-12-18T07:07:44;-13.00;99.90
5978;DHT22;3015;51.390;12.256;2022-12-18T07:10:10;-13.00;99.90
5978;DHT22;3015;51.390;12.256;2022-12-18T07:12:35;-12.90;99.90
5978;DHT22;3015;51.390;12.256;2022-12-18T07:15:02;-12.90;1.00
5978;DHT22;3015;51.390;12.256;2022-12-18T07:17:27;-12.70;1.00
5978;DHT22;3015;51.390;12.256;2022-12-18T07:19:53;-12.70;99.90
5978;DHT22;3015;51.390;12.256;2022-12-18T07:22:19;-12.70;99.90
5978;DHT22;3015;51.390;12.256;2022-12-18T07:24:44;-12.70;99.90
5978;DHT22;3015;51.390;12.256;2022-12-18T07:27:10;-12.70;99.90
5978;DHT22;3015;51.390;12.256;2022-12-18T07:29:35;-12.70;99.90
5978;DHT22;3015;51.390;12.256;2022-12-18T07:32:01;-12.70;99.90
5978;DHT22;3015;51.390;12.256;2022-12-18T07:34:27;-12.70;99.90
5978;DHT22;3015;51.390;12.256;2022-12-18T07:36:52;-12.70;99.90
5978;DHT22;3015;51.390;12.256;2022-12-18T07:39:18;-12.60;1.00
5978;DHT22;3015;51.390;12.256;2022-12-18T07:41:44;-12.60;99.90
5978;DHT22;3015;51.390;12.256;2022-12-18T07:44:29;-12.40;1.00
5978;DHT22;3015;51.390;12.256;2022-12-18T07:46:55;-12.40;1.00
5978;DHT22;3015;51.390;12.256;2022-12-18T07:49:20;-12.40;99.90
5978;DHT22;3015;51.390;12.256;2022-12-18T07:51:46;-12.40;1.00
5978;DHT22;3015;51.390;12.256;2022-12-18T07:54:14;-12.30;1.00
5978;DHT22;3015;51.390;12.256;2022-12-18T07:56:40;-12.20;1.00
5978;DHT22;3015;51.390;12.256;2022-12-18T07:59:05;-12.20;1.00
5978;DHT22;3015;51.390;12.256;2022-12-18T08:01:31;-12.10;1.00
5978;DHT22;3015;51.390;12.256;2022-12-18T08:03:58;-12.00;1.00
5978;DHT22;3015;51.390;12.256;2022-12-18T08:06:24;-11.90;1.00
5978;DHT22;3015;51.390;12.256;2022-12-18T08:08:51;-11.90;1.00
5978;DHT22;3015;51.390;12.256;2022-12-18T08:11:16;-11.80;1.00
5978;DHT22;3015;51.390;12.256;2022-12-18T08:13:42;-11.70;85.20
5978;DHT22;3015;51.390;12.256;2022-12-18T08:16:08;-11.60;99.90
5978;DHT22;3015;51.390;12.256;2022-12-18T08:18:35;-11.50;99.90
5978;DHT22;3015;51.390;12.256;2022-12-18T08:21:19;-11.30;99.90
5978;DHT22;3015;51.390;12.256;2022-12-18T08:23:46;-11.20;1.00
5978;DHT22;3015;51.390;12.256;2022-12-18T08:26:11;-11.10;1.00
5978;DHT22;3015;51.390;12.256;2022-12-18T08:28:38;-10.90;1.00
5978;DHT22;3015;51.390;12.256;2022-12-18T08:31:04;-10.80;62.80
5978;DHT22;3015;51.390;12.256;2022-12-18T08:33:29;-10.70;74.30
5978;DHT22;3015;51.390;12.256;2022-12-18T08:35:55;-10.50;99.90
5978;DHT22;3015;51.390;12.256;2022-12-18T08:38:20;-10.30;99.90
5978;DHT22;3015;51.390;12.256;2022-12-18T08:40:46;-9.60;1.00
5978;DHT22;3015;51.390;12.256;2022-12-18T08:43:12;-8.10;1.00
5978;DHT22;3015;51.390;12.256;2022-12-18T08:45:56;-6.20;1.00
5978;DHT22;3015;51.390;12.256;2022-12-18T08:48:22;-4.20;1.00
5978;DHT22;3015;51.390;12.256;2022-12-18T08:50:55;-2.40;1.00
5978;DHT22;3015;51.390;12.256;2022-12-18T08:53:21;-0.50;1.00
5978;DHT22;3015;51.390;12.256;2022-12-18T08:55:49;1.00;1.00
5978;DHT22;3015;51.390;12.256;2022-12-18T08:58:15;2.40;99.90
5978;DHT22;3015;51.390;12.256;2022-12-18T09:00:40;3.40;99.90
5978;DHT22;3015;51.390;12.256;2022-12-18T09:03:14;4.30;99.90
5978;DHT22;3015;51.390;12.256;2022-12-18T09:05:40;5.10;99.90
5978;DHT22;3015;51.390;12.256;2022-12-18T09:08:06;6.10;99.90
5978;DHT22;3015;51.390;12.256;2022-12-18T09:10:32;6.20;99.90
5978;DHT22;3015;51.390;12.256;2022-12-18T09:12:57;5.30;99.90
5978;DHT22;3015;51.390;12.256;2022-12-18T09:15:23;3.90;99.90
5978;DHT22;3015;51.390;12.256;2022-12-18T09:17:49;2.30;99.90
5978;DHT22;3015;51.390;12.256;2022-12-18T09:20:15;0.80;99.90
5978;DHT22;3015;51.390;12.256;2022-12-18T09:22:41;-0.30;99.90
5978;DHT22;3015;51.390;12.256;2022-12-18T09:25:07;-1.10;99.90
5978;DHT22;3015;51.390;12.256;2022-12-18T09:27:34;-1.90;1.00
5978;DHT22;3015;51.390;12.256;2022-12-18T09:29:59;-2.40;1.00
5978;DHT22;3015;51.390;12.256;2022-12-18T09:32:25;-2.70;1.00
5978;DHT22;3015;51.390;12.256;2022-12-18T09:34:51;-3.00;1.00
5978;DHT22;3015;51.390;12.256;2022-12-18T09:37:16;-3.20;86.10
5978;DHT22;3015;51.390;12.256;2022-12-18T09:39:42;-3.50;58.90
5978;DHT22;3015;51.390;12.256;2022-12-18T09:42:16;-3.50;99.90
5978;DHT22;3015;51.390;12.256;2022-12-18T09:44:49;-3.60;1.00
5978;DHT22;3015;51.390;12.256;2022-12-18T09:47:19;-3.60;1.00
5978;DHT22;3015;51.390;12.256;2022-12-18T09:49:55;-3.70;1.00
5978;DHT22;3015;51.390;12.256;2022-12-18T09:52:33;-3.70;1.00
5978;DHT22;3015;51.390;12.256;2022-12-18T09:55:05;-3.80;1.00
5978;DHT22;3015;51.390;12.256;2022-12-18T09:57:39;-3.70;19.50
5978;DHT22;3015;51.390;12.256;2022-12-18T10:00:18;-3.70;99.90
5978;DHT22;3015;51.390;12.256;2022-12-18T10:02:44;-3.60;99.90
5978;DHT22;3015;51.390;12.256;2022-12-18T10:05:16;-3.60;99.90
5978;DHT22;3015;51.390;12.256;2022-12-18T10:11:03;-3.60;99.90
5978;DHT22;3015;51.390;12.256;2022-12-18T10:21:26;-1.60;99.90
5978;DHT22;3015;51.390;12.256;2022-12-18T10:26:43;4.40;99.90
5978;DHT22;3015;51.390;12.256;2022-12-18T10:29:14;6.00;99.90
5978;DHT22;3015;51.390;12.256;2022-12-18T10:31:40;7.30;99.90
5978;DHT22;3015;51.390;12.256;2022-12-18T10:34:10;8.50;99.90
5978;DHT22;3015;51.390;12.256;2022-12-18T10:36:36;9.10;99.90
5978;DHT22;3015;51.390;12.256;2022-12-18T10:41:44;10.80;99.90
5978;DHT22;3015;51.390;12.256;2022-12-18T10:44:18;11.30;99.90
5978;DHT22;3015;51.390;12.256;2022-12-18T10:46:50;11.60;99.90
5978;DHT22;3015;51.390;12.256;2022-12-18T10:51:49;12.10;99.90
5978;DHT22;3015;51.390;12.256;2022-12-18T10:54:19;12.70;99.90
5978;DHT22;3015;51.390;12.256;2022-12-18T10:56:46;12.60;99.90
5978;DHT22;3015;51.390;12.256;2022-12-18T10:59:15;12.90;99.90
5978;DHT22;3015;51.390;12.256;2022-12-18T11:01:55;12.70;99.90
5978;DHT22;3015;51.390;12.256;2022-12-18T11:04:29;12.30;99.90
5978;DHT22;3015;51.390;12.256;2022-12-18T11:06:59;11.70;99.90
5978;DHT22;3015;51.390;12.256;2022-12-18T11:09:30;11.60;99.90
5978;DHT22;3015;51.390;12.256;2022-12-18T11:11:59;11.40;99.90
5978;DHT22;3015;51.390;12.256;2022-12-18T11:14:32;10.90;99.90
5978;DHT22;3015;51.390;12.256;2022-12-18T11:17:00;9.90;99.90
5978;DHT22;3015;51.390;12.256;2022-12-18T11:19:35;9.90;99.90
5978;DHT22;3015;51.390;12.256;2022-12-18T11:22:17;9.50;99.90
5978;DHT22;3015;51.390;12.256;2022-12-18T11:24:52;8.80;99.90
5978;DHT22;3015;51.390;12.256;2022-12-18T11:27:18;8.60;99.90
5978;DHT22;3015;51.390;12.256;2022-12-18T11:29:44;8.40;99.90
5978;DHT22;3015;51.390;12.256;2022-12-18T11:37:30;9.30;99.90
5978;DHT22;3015;51.390;12.256;2022-12-18T11:40:01;9.10;99.90
5978;DHT22;3015;51.390;12.256;2022-12-18T11:45:49;9.10;99.90
5978;DHT22;3015;51.390;12.256;2022-12-18T11:48:22;8.80;99.90
5978;DHT22;3015;51.390;12.256;2022-12-18T11:50:58;8.50;99.90
5978;DHT22;3015;51.390;12.256;2022-12-18T11:53:26;7.50;99.90
5978;DHT22;3015;51.390;12.256;2022-12-18T12:01:18;7.60;99.90
5978;DHT22;3015;51.390;12.256;2022-12-18T12:12:09;7.40;99.90
5978;DHT22;3015;51.390;12.256;2022-12-18T12:14:44;7.10;99.90
5978;DHT22;3015;51.390;12.256;2022-12-18T12:23:20;8.60;99.90
5978;DHT22;3015;51.390;12.256;2022-12-18T12:26:02;9.20;99.90
5978;DHT22;3015;51.390;12.256;2022-12-18T12:28:57;10.00;99.90
5978;DHT22;3015;51.390;12.256;2022-12-18T12:31:58;10.70;99.90
5978;DHT22;3015;51.390;12.256;2022-12-18T12:40:02;9.60;99.90
5978;DHT22;3015;51.390;12.256;2022-12-18T12:42:37;8.70;99.90
5978;DHT22;3015;51.390;12.256;2022-12-18T12:45:34;8.00;99.90
5978;DHT22;3015;51.390;12.256;2022-12-18T12:48:02;7.30;99.90
5978;DHT22;3015;51.390;12.256;2022-12-18T12:50:33;7.00;99.90
5978;DHT22;3015;51.390;12.256;2022-12-18T12:53:01;6.80;99.90
5978;DHT22;3015;51.390;12.256;2022-12-18T12:55:30;7.00;99.90
5978;DHT22;3015;51.390;12.256;2022-12-18T12:58:14;7.10;99.90
5978;DHT22;3015;51.390;12.256;2022-12-18T13:08:59;8.90;99.90
5978;DHT22;3015;51.390;12.256;2022-12-18T13:11:55;9.70;99.90
5978;DHT22;3015;51.390;12.256;2022-12-18T13:14:45;10.40;99.90
5978;DHT22;3015;51.390;12.256;2022-12-18T13:17:29;10.80;99.90
5978;DHT22;3015;51.390;12.256;2022-12-18T13:20:09;10.50;99.90
5978;DHT22;3015;51.390;12.256;2022-12-18T13:22:38;10.10;99.90
5978;DHT22;3015;51.390;12.256;2022-12-18T13:25:31;9.10;99.90
5978;DHT22;3015;51.390;12.256;2022-12-18T13:35:55;6.70;99.90
5978;DHT22;3015;51.390;12.256;2022-12-18T13:43:39;4.80;99.90
5978;DHT22;3015;51.390;12.256;2022-12-18T13:49:02;3.60;99.90
5978;DHT22;3015;51.390;12.256;2022-12-18T13:51:28;3.00;99.90
5978;DHT22;3015;51.390;12.256;2022-12-18T13:54:33;2.40;99.90
5978;DHT22;3015;51.390;12.256;2022-12-18T13:56:59;1.80;99.90
5978;DHT22;3015;51.390;12.256;2022-12-18T13:59:26;1.30;99.90
5978;DHT22;3015;51.390;12.256;2022-12-18T14:02:01;0.90;99.90
5978;DHT22;3015;51.390;12.256;2022-12-18T14:04:34;0.40;99.90
5978;DHT22;3015;51.390;12.256;2022-12-18T14:07:13;0.00;99.90
5978;DHT22;3015;51.390;12.256;2022-12-18T14:09:43;-0.20;99.90
5978;DHT22;3015;51.390;12.256;2022-12-18T14:12:20;-0.50;99.90
5978;DHT22;3015;51.390;12.256;2022-12-18T14:15:13;-0.80;99.90
5978;DHT22;3015;51.390;12.256;2022-12-18T14:17:45;-0.90;99.90
5978;DHT22;3015;51.390;12.256;2022-12-18T14:20:15;-1.20;99.90
5978;DHT22;3015;51.390;12.256;2022-12-18T14:22:46;-1.40;99.90
5978;DHT22;3015;51.390;12.256;2022-12-18T14:27:42;-1.80;99.90
5978;DHT22;3015;51.390;12.256;2022-12-18T14:33:01;-2.30;99.90
5978;DHT22;3015;51.390;12.256;2022-12-18T14:35:27;-2.50;99.90
5978;DHT22;3015;51.390;12.256;2022-12-18T14:37:52;-2.70;99.90
5978;DHT22;3015;51.390;12.256;2022-12-18T14:40:18;-2.90;99.90
5978;DHT22;3015;51.390;12.256;2022-12-18T14:42:43;-3.00;99.90
5978;DHT22;3015;51.390;12.256;2022-12-18T14:45:40;-3.10;99.90
5978;DHT22;3015;51.390;12.256;2022-12-18T14:48:09;-3.20;99.90
5978;DHT22;3015;51.390;12.256;2022-12-18T14:50:35;-3.30;99.90
5978;DHT22;3015;51.390;12.256;2022-12-18T14:53:00;-3.50;99.90
5978;DHT22;3015;51.390;12.256;2022-12-18T14:55:26;-3.70;99.90
5978;DHT22;3015;51.390;12.256;2022-12-18T14:57:54;-3.80;99.90
5978;DHT22;3015;51.390;12.256;2022-12-18T15:00:22;-4.00;1.00
5978;DHT22;3015;51.390;12.256;2022-12-18T15:02:52;-4.10;1.00
5978;DHT22;3015;51.390;12.256;2022-12-18T15:05:24;-4.30;1.00
5978;DHT22;3015;51.390;12.256;2022-12-18T15:07:58;-4.50;1.00
5978;DHT22;3015;51.390;12.256;2022-12-18T15:10:26;-4.60;1.00
5978;DHT22;3015;51.390;12.256;2022-12-18T15:18:05;-5.10;1.00
5978;DHT22;3015;51.390;12.256;2022-12-18T15:20:52;-5.20;1.00
5978;DHT22;3015;51.390;12.256;2022-12-18T15:23:22;-5.30;1.00
5978;DHT22;3015;51.390;12.256;2022-12-18T15:33:36;-5.60;1.00
5978;DHT22;3015;51.390;12.256;2022-12-18T15:36:04;-5.70;1.00
5978;DHT22;3015;51.390;12.256;2022-12-18T15:38:31;-5.70;1.00
5978;DHT22;3015;51.390;12.256;2022-12-18T15:40:57;-5.70;1.00
5978;DHT22;3015;51.390;12.256;2022-12-18T15:43:24;-5.70;1.00
5978;DHT22;3015;51.390;12.256;2022-12-18T15:48:27;-5.90;1.00
5978;DHT22;3015;51.390;12.256;2022-12-18T15:50:55;-5.90;1.00
5978;DHT22;3015;51.390;12.256;2022-12-18T15:53:23;-6.00;1.00
5978;DHT22;3015;51.390;12.256;2022-12-18T15:55:49;-5.90;1.00
5978;DHT22;3015;51.390;12.256;2022-12-18T15:58:33;-5.90;1.00
5978;DHT22;3015;51.390;12.256;2022-12-18T16:00:59;-6.00;1.00
5978;DHT22;3015;51.390;12.256;2022-12-18T16:03:26;-6.00;1.00
5978;DHT22;3015;51.390;12.256;2022-12-18T16:05:51;-6.00;1.00
5978;DHT22;3015;51.390;12.256;2022-12-18T16:08:17;-6.00;1.00
5978;DHT22;3015;51.390;12.256;2022-12-18T16:10:42;-6.10;12.30
5978;DHT22;3015;51.390;12.256;2022-12-18T16:13:19;-6.20;1.00
5978;DHT22;3015;51.390;12.256;2022-12-18T16:15:45;-6.30;1.00
5978;DHT22;3015;51.390;12.256;2022-12-18T16:18:11;-6.40;1.00
5978;DHT22;3015;51.390;12.256;2022-12-18T16:20:38;-6.50;1.00
5978;DHT22;3015;51.390;12.256;2022-12-18T16:23:04;-6.60;1.00
5978;DHT22;3015;51.390;12.256;2022-12-18T16:25:29;-6.60;1.00
5978;DHT22;3015;51.390;12.256;2022-12-18T16:27:56;-6.50;99.90
5978;DHT22;3015;51.390;12.256;2022-12-18T16:30:24;-6.60;1.00
5978;DHT22;3015;51.390;12.256;2022-12-18T16:32:52;-6.70;1.00
5978;DHT22;3015;51.390;12.256;2022-12-18T16:35:18;-6.80;1.00
5978;DHT22;3015;51.390;12.256;2022-12-18T16:37:44;-6.90;1.00
5978;DHT22;3015;51.390;12.256;2022-12-18T16:40:13;-6.90;1.00
5978;DHT22;3015;51.390;12.256;2022-12-18T16:42:40;-7.00;1.00
5978;DHT22;3015;51.390;12.256;2022-12-18T16:45:08;-7.00;1.00
5978;DHT22;3015;51.390;12.256;2022-12-18T16:47:34;-7.10;1.00
5978;DHT22;3015;51.390;12.256;2022-12-18T16:50:00;-7.00;33.30
5978;DHT22;3015;51.390;12.256;2022-12-18T16:52:26;-7.10;51.90
5978;DHT22;3015;51.390;12.256;2022-12-18T16:54:51;-7.10;53.30
5978;DHT22;3015;51.390;12.256;2022-12-18T16:57:19;-7.10;49.90
5978;DHT22;3015;51.390;12.256;2022-12-18T16:59:45;-7.10;83.80
5978;DHT22;3015;51.390;12.256;2022-12-18T17:02:20;-7.00;99.90
5978;DHT22;3015;51.390;12.256;2022-12-18T17:04:46;-7.00;99.90
5978;DHT22;3015;51.390;12.256;2022-12-18T17:07:13;-7.10;6.20
5978;DHT22;3015;51.390;12.256;2022-12-18T17:09:39;-7.00;43.70
5978;DHT22;3015;51.390;12.256;2022-12-18T17:12:04;-7.00;99.90
5978;DHT22;3015;51.390;12.256;2022-12-18T17:14:31;-7.00;99.90
5978;DHT22;3015;51.390;12.256;2022-12-18T17:16:57;-6.90;99.90
5978;DHT22;3015;51.390;12.256;2022-12-18T17:19:24;-6.80;99.90
5978;DHT22;3015;51.390;12.256;2022-12-18T17:21:50;-6.70;1.00
5978;DHT22;3015;51.390;12.256;2022-12-18T17:24:17;-6.70;99.90
5978;DHT22;3015;51.390;12.256;2022-12-18T17:26:43;-6.50;1.00
5978;DHT22;3015;51.390;12.256;2022-12-18T17:29:13;-6.40;1.00
5978;DHT22;3015;51.390;12.256;2022-12-18T17:31:38;-6.30;1.00
5978;DHT22;3015;51.390;12.256;2022-12-18T17:34:04;-6.30;1.00
5978;DHT22;3015;51.390;12.256;2022-12-18T17:36:30;-6.30;1.00
5978;DHT22;3015;51.390;12.256;2022-12-18T17:38:58;-6.30;1.00
5978;DHT22;3015;51.390;12.256;2022-12-18T17:41:25;-6.10;1.00
5978;DHT22;3015;51.390;12.256;2022-12-18T17:43:56;-6.10;1.00
5978;DHT22;3015;51.390;12.256;2022-12-18T17:46:23;-6.10;1.00
5978;DHT22;3015;51.390;12.256;2022-12-18T17:48:49;-6.10;99.90
5978;DHT22;3015;51.390;12.256;2022-12-18T17:51:15;-6.10;99.90
5978;DHT22;3015;51.390;12.256;2022-12-18T17:53:41;-6.00;99.90
5978;DHT22;3015;51.390;12.256;2022-12-18T17:56:11;-6.00;99.90
5978;DHT22;3015;51.390;12.256;2022-12-18T17:58:37;-5.90;1.00
5978;DHT22;3015;51.390;12.256;2022-12-18T18:01:05;-5.90;99.90
5978;DHT22;3015;51.390;12.256;2022-12-18T18:03:32;-5.90;99.90